Flight Track Log - Related Links

Times and Time Zones

All times are in EDT time to prevent confusion due to time zone crossing. See the SKW5564 flight status page for this flight to view local times or setup timezone preferences in your user account.

Time Position Orientation Groundspeed Altitude Reporting Facility
EDT Latitude Longitude Course Direction KTS MPH feet Rate Location/Type
Sun 05:20:38 PM 37.6167 -122.3500 133° Southeast 169 194 1,000  Level Northern Cal TRACON
Sun 05:21:36 PM 37.5992 -122.2964 112° Southeast 209 241 2,900 2,759 Climbing Oakland Center
Sun 05:23:00 PM 37.4473 -122.4085 113° Southeast  Level FlightAware Approximate
Sun 05:23:32 PM 37.5500 -122.1500 113° Southeast 250 288 9,000  Level Northern Cal TRACON
Sun 05:24:00 PM 37.3917 -122.2792 130° Southeast  Level FlightAware Approximate
Sun 05:25:00 PM 37.3074 -122.1755 136° Southeast  Level FlightAware Approximate
Sun 05:25:42 PM 37.4411 -121.9997 132° Southeast 286 329 13,300  Level Oakland Center
Sun 05:26:00 PM 37.2331 -122.0608 133° Southeast  Level FlightAware Approximate
Sun 05:27:32 PM 37.3517 -121.8239 123° Southeast 313 360 17,600  Level Los Angeles Center
Sun 05:28:45 PM 37.3200 -121.6639 104° East 355 409 20,000 1,867 Climbing Oakland Center
Sun 05:29:47 PM 37.2914 -121.5397 106° East 368 423 21,800 1,659 Climbing Oakland Center
Sun 05:30:48 PM 37.2619 -121.4136 106° East 377 434 23,400 1,574 Climbing Oakland Center
Sun 05:31:49 PM 37.2331 -121.2819 105° East 389 448 25,000 1,561 Climbing Oakland Center
Sun 05:32:51 PM 37.2025 -121.1497 106° East 395 455 26,600 1,512 Climbing Oakland Center
Sun 05:33:52 PM 37.1711 -121.0175 107° East 398 458 28,100 1,328 Climbing Oakland Center
Sun 05:34:53 PM 37.1403 -120.8822 106° East 404 465 29,300 1,171 Climbing Oakland Center
Sun 05:35:55 PM 37.1061 -120.7456 107° East 415 478 30,500 1,171 Climbing Oakland Center
Sun 05:36:56 PM 37.0792 -120.6058 104° East 424 488 31,700 1,082 Climbing Oakland Center
Sun 05:37:57 PM 37.0942 -120.4244 84° East 444 511 32,700 634 Climbing Oakland Center
Sun 05:38:59 PM 37.1139 -120.2703 81° East 450 518 33,000 146 Climbing Oakland Center
Sun 05:40:00 PM 37.1319 -120.1203 81° East 440 506 33,000  Level Oakland Center
Sun 05:41:01 PM 37.1508 -119.9686 81° East 441 507 33,000  Level Oakland Center
Sun 05:42:03 PM 37.1675 -119.8192 82° East 434 499 33,000  Level Oakland Center
Sun 05:43:04 PM 37.1842 -119.6775 82° East 435 501 33,000  Level Oakland Center
Sun 05:44:06 PM 37.2053 -119.4928 82° East 446 513 33,000  Level Oakland Center
Sun 05:45:07 PM 37.2231 -119.3394 82° East 446 513 33,000  Level Oakland Center
Sun 05:46:08 PM 37.2400 -119.1889 82° East 436 502 33,000  Level Oakland Center
Sun 05:47:10 PM 37.2564 -119.0367 82° East 441 507 33,000  Level Oakland Center
Sun 05:48:11 PM 37.2731 -118.8822 82° East 445 512 33,000  Level Oakland Center
Sun 05:49:13 PM 37.2869 -118.7347 83° East 427 491 33,000  Level Oakland Center
Sun 05:50:14 PM 37.3019 -118.5900 83° East 422 486 33,000 195 Level Oakland Center
Sun 05:51:16 PM 37.3197 -118.4247 82° East 430 495 33,400 488 Climbing Oakland Center
Sun 05:52:17 PM 37.3356 -118.2717 83° East 440 506 34,000 634 Climbing Oakland Center
Sun 05:53:19 PM 37.3522 -118.1164 82° East 446 513 34,700 488 Climbing Oakland Center
Sun 05:54:20 PM 37.3664 -117.9575 84° East 454 522 35,000 146 Climbing Oakland Center
Sun 05:55:22 PM 37.3819 -117.8011 83° East 455 524 35,000  Level Oakland Center
Sun 05:56:23 PM 37.3964 -117.6511 83° East 443 510 35,000  Level Oakland Center
Sun 05:57:25 PM 37.4139 -117.4653 83° East 445 512 35,000  Level Oakland Center
Sun 05:58:26 PM 37.3975 -117.3064 97° East 460 529 35,000  Level Oakland Center
Sun 05:59:28 PM 37.3278 -117.1881 127° Southeast 428 493 35,000  Level Oakland Center
Sun 06:00:39 PM 37.2106 -117.0936 147° Southeast 422 486 35,000  Level Los Angeles Center
Sun 06:01:41 PM 37.1114 -117.0119 147° Southeast 424 488 35,000  Level Los Angeles Center
Sun 06:02:32 PM 37.0336 -116.9428 145° Southeast 422 486 35,000  Level Oakland Center
Sun 06:03:34 PM 36.9375 -116.8617 146° Southeast 418 481 35,000 -195 Level Oakland Center
Sun 06:04:35 PM 36.8242 -116.7678 146° Southeast 411 473 34,600 -1,220 Descending Oakland Center
Sun 06:05:37 PM 36.7419 -116.6639 135° Southeast 424 488 32,500 -2,226 Descending Oakland Center
Sun 06:06:39 PM 36.6653 -116.5575 132° Southeast 418 481 30,000 -2,341 Descending Oakland Center
Sun 06:07:40 PM 36.5939 -116.4497 130° Southeast 411 473 27,700 -2,118 Descending Oakland Center
Sun 06:08:55 PM 36.5178 -116.3433 132° Southeast 376 433 25,200 -1,957 Descending Los Angeles Center
Sun 06:09:58 PM 36.4550 -116.2539 131° Southeast 353 406 23,200 -2,095 Descending Los Angeles Center
Sun 06:11:01 PM 36.3772 -116.1461 132° Southeast 344 396 20,800 -1,984 Descending Los Angeles Center
Sun 06:12:02 PM 36.3178 -116.0617 131° Southeast 328 377 19,100 -1,714 Descending Los Angeles Center
Sun 06:12:25 PM 36.2931 -116.0344 138° Southeast 320 368 18,400 -1,875 Descending Los Angeles Center
Sun 06:13:06 PM 36.2564 -115.9747 127° Southeast 317 365 17,100 -1,881 Descending Los Angeles Center
Sun 06:13:32 PM 36.2261 -115.9414 138° Southeast 314 361 16,300 -1,100 Descending Los Angeles Center
Sun 06:14:06 PM 36.1994 -115.8975 127° Southeast 304 350 16,000 -247 Descending Los Angeles Center
Sun 06:14:45 PM 36.1542 -115.8556 143° Southeast 295 339 16,000 -677 Level Los Angeles Center
Sun 06:15:08 PM 36.1331 -115.8269 132° Southeast 293 337 15,300 -2,000 Descending Los Angeles Center
Sun 06:15:39 PM 36.0981 -115.7939 143° Southeast 293 337 14,200 -1,839 Descending Los Angeles Center
Sun 06:16:10 PM 36.0700 -115.7642 139° Southeast 294 338 13,400 -1,895 Descending Los Angeles Center
Sun 06:16:36 PM 36.0433 -115.7397 143° Southeast 277 319 12,400 -2,226 Descending Los Angeles Center
Sun 06:17:12 PM 36.0039 -115.7003 141° Southeast 284 327 11,100 -1,292 Descending Los Angeles Center
Sun 06:17:41 PM 35.9731 -115.6719 143° Southeast 281 323 11,000 -97 Descending Los Angeles Center
Sun 06:18:14 PM 35.9439 -115.6408 139° Southeast 279 321 11,000  Level Los Angeles Center
Sun 06:18:42 PM 35.9133 -115.6144 145° Southeast 273 314 11,000  Level Los Angeles Center
Sun 06:19:17 PM 35.8789 -115.5781 139° Southeast 277 319 11,000 -98 Level Los Angeles Center
Sun 06:19:43 PM 35.8556 -115.5561 143° Southeast 270 311 10,900 -194 Descending Los Angeles Center
Sun 06:20:19 PM 35.8481 -115.5136 102° East 272 313 10,800 -590 Descending Los Angeles Center
Sun 06:20:44 PM 35.8475 -115.4686 91° East 255 293 10,300 -968 Descending Los Angeles Center
Sun 06:21:21 PM 35.8500 -115.4267 86° East 262 302 9,800 -1,574 Descending Los Angeles Center
Sun 06:21:45 PM 35.8631 -115.3814 70° East 264 304 8,700 -2,419 Descending Los Angeles Center
Sun 06:22:23 PM 35.9064 -115.3514 29° Northeast 275 316 7,300 -2,100 Descending Los Angeles Center
Sun 06:22:45 PM 35.9381 -115.3383 18° North 289 333 6,600 -1,645 Descending Los Angeles Center
Sun 06:23:25 PM 35.9817 -115.3186 20° North 284 327 5,600 -1,065 Descending Los Angeles Center
Sun 06:23:47 PM 36.0092 -115.3072 19° North 271 312 5,500 -194 Descending Los Angeles Center
Sun 06:24:27 PM 36.0619 -115.2828 21° North 284 327 5,400 -1,100 Descending Los Angeles Center
Sun 06:24:47 PM 36.0689 -115.2744 44° Northeast 217 250 4,400 -1,839 Descending Los Angeles Center
Sun 06:25:29 PM 36.0750 -115.2367 79° East 250 288 3,500 -1,180 Descending Los Angeles Center
Sun 06:25:48 PM 36.0731 -115.2144 96° East 161 185 3,200 -484 Descending Los Angeles Center
Sun 06:26:31 PM 36.0733 -115.1817 89° East 206 237 3,000 -279 Descending Los Angeles Center
Sun 06:28:00 PM 36.0801 -115.1523 95° East  Level Estimated

Login

Don't have an account? Register now (free) for customized features, flight alerts, and more!